createdAt,value
2018-09-29T00:01:07.817Z,94622.94
2018-09-29T00:03:35.355Z,94631.84
2018-09-29T00:06:02.882Z,94623.97
2018-09-29T00:08:30.439Z,94621.39
2018-09-29T00:10:58.018Z,94621.67
2018-09-29T00:13:25.592Z,94624.67
2018-09-29T00:15:53.140Z,94630.29
2018-09-29T00:18:20.686Z,94633.11
2018-09-29T00:20:48.527Z,94631.92
2018-09-29T00:23:16.045Z,94638.52
2018-09-29T00:25:43.602Z,94645.70
2018-09-29T00:28:11.266Z,94630.36
2018-09-29T00:30:38.818Z,94629.91
2018-09-29T00:33:06.459Z,94644.13
2018-09-29T00:35:33.990Z,94630.06
2018-09-29T00:38:01.575Z,94631.70
2018-09-29T00:40:29.126Z,94624.12
2018-09-29T00:42:56.694Z,94626.30
2018-09-29T00:45:24.255Z,94628.06
2018-09-29T00:47:51.821Z,94626.20
2018-09-29T00:50:19.359Z,94633.38
2018-09-29T00:52:46.883Z,94627.44
2018-09-29T00:55:14.435Z,94621.91
2018-09-29T00:57:42.050Z,94621.12
2018-09-29T01:00:09.631Z,94624.56
2018-09-29T01:02:37.151Z,94617.05
2018-09-29T01:05:04.691Z,94618.66
2018-09-29T01:07:32.290Z,94620.00
2018-09-29T01:09:59.836Z,94622.36
2018-09-29T01:12:27.358Z,94626.98
2018-09-29T01:14:54.878Z,94625.31
2018-09-29T01:17:22.426Z,94629.56
2018-09-29T01:19:49.953Z,94630.88
2018-09-29T01:22:17.506Z,94636.80
2018-09-29T01:24:45.055Z,94635.19
2018-09-29T01:27:12.614Z,94624.35
2018-09-29T01:29:40.153Z,94623.23
2018-09-29T01:32:07.721Z,94615.51
2018-09-29T01:34:35.339Z,94614.03
2018-09-29T01:37:03.161Z,94610.23
2018-09-29T01:39:30.708Z,94617.14
2018-09-29T01:41:58.234Z,94604.36
2018-09-29T01:44:25.818Z,94601.73
2018-09-29T01:46:53.342Z,94605.75
2018-09-29T01:49:20.888Z,94609.05
2018-09-29T01:51:48.733Z,94592.53
2018-09-29T01:54:16.274Z,94594.49
2018-09-29T01:56:43.824Z,94588.41
2018-09-29T01:59:11.373Z,94586.48
2018-09-29T02:01:38.887Z,94582.56
2018-09-29T02:04:06.835Z,94592.17
2018-09-29T02:06:34.366Z,94587.81
2018-09-29T02:09:01.971Z,94588.81
2018-09-29T02:11:29.502Z,94593.06
2018-09-29T02:13:57.018Z,94589.11
2018-09-29T02:16:24.905Z,94577.86
2018-09-29T02:18:52.473Z,94583.56
2018-09-29T02:21:20.014Z,94571.80
2018-09-29T02:23:47.630Z,94565.95
2018-09-29T02:26:15.175Z,94565.80
2018-09-29T02:28:42.823Z,94554.84
2018-09-29T02:31:10.357Z,94555.48
2018-09-29T02:33:37.909Z,94554.02
2018-09-29T02:36:05.470Z,94555.53
2018-09-29T02:38:33.050Z,94555.20
2018-09-29T02:41:00.637Z,94556.16
2018-09-29T02:43:28.456Z,94544.42
2018-09-29T02:45:55.978Z,94541.83
2018-09-29T02:48:23.547Z,94536.25
2018-09-29T02:50:51.074Z,94528.70
2018-09-29T02:53:18.634Z,94526.43
2018-09-29T02:55:46.170Z,94513.68
2018-09-29T02:58:13.755Z,94510.74
2018-09-29T03:00:41.330Z,94510.42
2018-09-29T03:03:08.871Z,94515.34
2018-09-29T03:05:36.419Z,94513.91
2018-09-29T03:08:03.942Z,94513.40
2018-09-29T03:10:31.500Z,94517.66
2018-09-29T03:12:59.118Z,94512.27
2018-09-29T03:15:26.682Z,94514.06
2018-09-29T03:17:54.297Z,94523.91
2018-09-29T03:20:21.854Z,94529.77
2018-09-29T03:22:49.374Z,94535.34
2018-09-29T03:25:17.200Z,94527.68
2018-09-29T03:27:44.742Z,94529.46
2018-09-29T03:30:12.371Z,94535.37
2018-09-29T03:32:39.980Z,94540.58
2018-09-29T03:35:07.499Z,94538.14
2018-09-29T03:37:35.041Z,94536.36
2018-09-29T03:40:02.620Z,94533.08
2018-09-29T03:42:30.192Z,94532.58
2018-09-29T03:44:57.735Z,94529.81
2018-09-29T03:47:25.318Z,94525.56
2018-09-29T03:49:52.883Z,94532.59
2018-09-29T03:52:20.462Z,94534.71
2018-09-29T03:54:48.004Z,94535.35
2018-09-29T03:57:15.519Z,94537.17
2018-09-29T03:59:43.075Z,94544.14
2018-09-29T04:02:10.598Z,94539.89
2018-09-29T04:04:38.164Z,94536.95
2018-09-29T04:07:05.740Z,94538.90
2018-09-29T04:09:33.267Z,94542.79
2018-09-29T04:12:00.822Z,94547.71
2018-09-29T04:14:28.459Z,94545.09
2018-09-29T04:16:55.985Z,94547.86
2018-09-29T04:19:23.552Z,94546.83
2018-09-29T04:21:51.094Z,94558.73
2018-09-29T04:24:18.950Z,94543.58
2018-09-29T04:26:46.465Z,94548.23
2018-09-29T04:29:16.681Z,94548.57
2018-09-29T04:31:44.259Z,94545.33
2018-09-29T04:34:12.534Z,94545.14
2018-09-29T04:36:40.358Z,94541.89
2018-09-29T04:39:09.175Z,94543.15
2018-09-29T04:41:37.565Z,94538.99
2018-09-29T04:44:05.415Z,94540.75
2018-09-29T04:46:32.971Z,94535.70
2018-09-29T04:49:00.621Z,94548.06
2018-09-29T04:51:28.122Z,94538.28
2018-09-29T04:53:55.794Z,94546.73
2018-09-29T04:56:23.315Z,94540.70
2018-09-29T04:58:50.846Z,94540.50
2018-09-29T05:01:18.442Z,94541.78
2018-09-29T05:03:45.965Z,94549.30
2018-09-29T05:06:13.859Z,94552.72
2018-09-29T05:08:41.387Z,94550.58
2018-09-29T05:11:09.002Z,94550.59
2018-09-29T05:13:36.587Z,94552.23
2018-09-29T05:16:04.181Z,94554.84
2018-09-29T05:18:31.717Z,94563.98
2018-09-29T05:20:59.322Z,94561.70
2018-09-29T05:23:27.196Z,94564.59
2018-09-29T05:25:54.739Z,94556.40
2018-09-29T05:28:22.271Z,94562.95
2018-09-29T05:30:49.855Z,94567.88
2018-09-29T05:33:17.440Z,94566.17
2018-09-29T05:35:45.026Z,94562.95
2018-09-29T05:38:12.625Z,94572.39
2018-09-29T05:40:40.182Z,94575.29
2018-09-29T05:43:08.090Z,94580.15
2018-09-29T05:45:36.183Z,94585.70
2018-09-29T05:48:03.738Z,94581.22
2018-09-29T05:50:31.303Z,94586.75
2018-09-29T05:52:58.926Z,94587.36
2018-09-29T05:55:26.488Z,94596.14
2018-09-29T05:57:54.059Z,94597.42
2018-09-29T06:00:21.666Z,94597.31
2018-09-29T06:02:49.155Z,94596.22
2018-09-29T06:05:16.852Z,94601.28
2018-09-29T06:07:44.390Z,94604.59
2018-09-29T06:10:11.941Z,94593.85
2018-09-29T06:12:39.521Z,94600.33
2018-09-29T06:15:07.093Z,94596.20
2018-09-29T06:17:34.627Z,94596.35
2018-09-29T06:20:02.183Z,94610.09
2018-09-29T06:22:29.775Z,94592.80
2018-09-29T06:24:57.309Z,94584.41
2018-09-29T06:27:24.874Z,94585.05
2018-09-29T06:29:52.424Z,94585.55
2018-09-29T06:32:20.030Z,94581.95
2018-09-29T06:34:47.594Z,94577.50
2018-09-29T06:37:15.395Z,94584.03
2018-09-29T06:39:43.313Z,94583.00
2018-09-29T06:42:10.835Z,94585.25
2018-09-29T06:44:38.393Z,94581.62
2018-09-29T06:47:06.226Z,94587.59
2018-09-29T06:49:33.797Z,94580.99
2018-09-29T06:52:01.340Z,94581.23
2018-09-29T06:54:29.314Z,94584.39
2018-09-29T06:56:56.827Z,94587.55
2018-09-29T06:59:24.468Z,94575.17
2018-09-29T07:01:52.337Z,94576.48
2018-09-29T07:04:19.874Z,94569.03
2018-09-29T07:06:47.429Z,94559.40
2018-09-29T07:09:15.002Z,94560.70
2018-09-29T07:11:42.567Z,94556.92
2018-09-29T07:14:10.441Z,94560.56
2018-09-29T07:16:38.006Z,94556.50
2018-09-29T07:19:05.582Z,94564.44
2018-09-29T07:21:33.221Z,94558.70
2018-09-29T07:24:00.789Z,94560.97
2018-09-29T07:26:28.423Z,94555.91
2018-09-29T07:28:56.007Z,94555.87
2018-09-29T07:31:23.688Z,94571.53
2018-09-29T07:33:51.222Z,94561.20
2018-09-29T07:36:18.803Z,94562.02
2018-09-29T07:38:46.383Z,94564.94
2018-09-29T07:41:14.188Z,94570.32
2018-09-29T07:43:41.799Z,94565.09
2018-09-29T07:46:09.502Z,94570.23
2018-09-29T07:48:38.099Z,94566.64
2018-09-29T07:51:05.717Z,94566.08
2018-09-29T07:53:33.287Z,94574.33
2018-09-29T07:56:00.953Z,94570.05
2018-09-29T07:58:28.503Z,94564.77
2018-09-29T08:00:56.035Z,94572.09
2018-09-29T08:03:23.615Z,94570.77
2018-09-29T08:05:51.235Z,94573.90
2018-09-29T08:08:18.770Z,94572.28
2018-09-29T08:10:46.355Z,94572.16
2018-09-29T08:13:14.334Z,94565.53
2018-09-29T08:15:41.913Z,94573.30
2018-09-29T08:18:09.443Z,94574.20
2018-09-29T08:20:37.115Z,94568.46
2018-09-29T08:23:04.649Z,94567.65
2018-09-29T08:25:32.284Z,94573.09
2018-09-29T08:27:59.838Z,94574.73
2018-09-29T08:30:27.492Z,94569.84
2018-09-29T08:32:55.050Z,94566.06
2018-09-29T08:35:22.594Z,94560.61
2018-09-29T08:37:50.223Z,94562.23
2018-09-29T08:40:17.722Z,94553.95
2018-09-29T08:42:45.288Z,94550.26
2018-09-29T08:45:13.110Z,94552.53
2018-09-29T08:47:40.687Z,94551.57
2018-09-29T08:50:08.230Z,94548.02
2018-09-29T08:52:36.195Z,94543.28
2018-09-29T08:55:03.742Z,94550.60
2018-09-29T08:57:31.302Z,94543.67
2018-09-29T08:59:59.162Z,94551.80
2018-09-29T09:02:26.735Z,94549.62
2018-09-29T09:04:54.285Z,94538.98
2018-09-29T09:07:22.159Z,94542.25
2018-09-29T09:09:49.714Z,94537.34
2018-09-29T09:12:17.251Z,94539.83
2018-09-29T09:14:44.890Z,94536.20
2018-09-29T09:17:12.439Z,94534.70
2018-09-29T09:19:39.979Z,94542.45
2018-09-29T09:22:07.506Z,94540.38
2018-09-29T09:24:35.083Z,94531.43
2018-09-29T09:27:02.822Z,94529.93
2018-09-29T09:29:30.360Z,94534.10
2018-09-29T09:31:57.923Z,94532.65
2018-09-29T09:34:25.682Z,94525.67
2018-09-29T09:36:53.229Z,94530.34
2018-09-29T09:39:20.778Z,94535.71
2018-09-29T09:41:48.376Z,94519.17
2018-09-29T09:44:15.932Z,94531.19
2018-09-29T09:46:43.482Z,94525.23
2018-09-29T09:49:11.063Z,94522.62
2018-09-29T09:51:38.647Z,94517.92
2018-09-29T09:54:06.208Z,94506.83
2018-09-29T09:56:33.789Z,94506.28
2018-09-29T09:59:01.339Z,94492.77
2018-09-29T10:01:33.395Z,94493.72
2018-09-29T10:04:00.983Z,94495.22
2018-09-29T10:06:28.590Z,94489.38
2018-09-29T10:08:56.141Z,94479.41
2018-09-29T10:11:23.718Z,94488.38
2018-09-29T10:13:51.300Z,94488.27
2018-09-29T10:16:18.850Z,94486.02
2018-09-29T10:18:46.370Z,94475.37
2018-09-29T10:21:13.978Z,94487.34
2018-09-29T10:23:41.517Z,94476.87
2018-09-29T10:26:09.098Z,94485.89
2018-09-29T10:28:36.646Z,94478.00
2018-09-29T10:31:04.310Z,94477.38
2018-09-29T10:33:31.871Z,94497.69
2018-09-29T10:35:59.423Z,94500.05
2018-09-29T10:38:27.015Z,94476.07
2018-09-29T10:40:54.549Z,94484.45
2018-09-29T10:43:22.181Z,94483.37
2018-09-29T10:45:49.731Z,94484.58
2018-09-29T10:48:17.305Z,94489.52
2018-09-29T10:50:44.910Z,94480.69
2018-09-29T10:53:12.447Z,94483.72
2018-09-29T10:55:40.001Z,94482.48
2018-09-29T10:58:07.651Z,94486.23
2018-09-29T11:00:35.244Z,94489.44
2018-09-29T11:03:02.871Z,94492.42
2018-09-29T11:05:30.511Z,94471.84
2018-09-29T11:07:58.051Z,94483.84
2018-09-29T11:10:25.608Z,94483.46
2018-09-29T11:12:53.179Z,94488.05
2018-09-29T11:15:20.735Z,94480.39
2018-09-29T11:17:48.314Z,94474.61
2018-09-29T11:20:15.862Z,94475.98
2018-09-29T11:22:43.430Z,94467.67
2018-09-29T11:25:10.989Z,94471.20
2018-09-29T11:27:38.616Z,94455.41
2018-09-29T11:30:06.234Z,94450.72
2018-09-29T11:32:33.807Z,94474.44
2018-09-29T11:35:01.458Z,94457.47
2018-09-29T11:37:29.038Z,94446.86
2018-09-29T11:39:56.602Z,94451.14
2018-09-29T11:42:24.146Z,94456.98
2018-09-29T11:44:51.883Z,94450.23
2018-09-29T11:47:19.359Z,94459.64
2018-09-29T11:49:46.896Z,94442.83
2018-09-29T11:52:14.620Z,94446.73
2018-09-29T11:54:42.176Z,94432.68
2018-09-29T11:57:09.803Z,94440.42
2018-09-29T11:59:37.344Z,94421.76
2018-09-29T12:02:04.957Z,94429.56
2018-09-29T12:04:32.560Z,94415.97
2018-09-29T12:07:00.162Z,94420.30
2018-09-29T12:09:27.723Z,94424.78
2018-09-29T12:11:55.259Z,94418.56
2018-09-29T12:14:22.851Z,94411.88
2018-09-29T12:16:50.393Z,94413.81
2018-09-29T12:19:18.036Z,94408.61
2018-09-29T12:21:45.599Z,94399.80
2018-09-29T12:24:13.196Z,94408.36
2018-09-29T12:26:40.834Z,94404.81
2018-09-29T12:29:08.400Z,94381.02
2018-09-29T12:31:36.305Z,94391.98
2018-09-29T12:34:03.867Z,94385.55
2018-09-29T12:36:31.418Z,94386.36
2018-09-29T12:38:59.009Z,94383.81
2018-09-29T12:41:26.561Z,94392.80
2018-09-29T12:43:54.139Z,94376.17
2018-09-29T12:46:21.665Z,94369.13
2018-09-29T12:48:49.188Z,94385.94
2018-09-29T12:51:16.817Z,94373.52
2018-09-29T12:53:44.342Z,94363.14
2018-09-29T12:56:11.942Z,94373.52
2018-09-29T12:58:39.505Z,94358.30
2018-09-29T13:01:07.073Z,94367.26
2018-09-29T13:03:34.678Z,94366.30
2018-09-29T13:06:02.218Z,94357.20
2018-09-29T13:08:29.771Z,94364.12
2018-09-29T13:10:57.377Z,94373.58
2018-09-29T13:13:24.917Z,94356.95
2018-09-29T13:15:52.491Z,94359.02
2018-09-29T13:18:20.055Z,94363.27
2018-09-29T13:20:47.661Z,94355.73
2018-09-29T13:23:15.297Z,94361.87
2018-09-29T13:25:42.868Z,94349.39
2018-09-29T13:28:10.407Z,94348.36
2018-09-29T13:30:38.342Z,94342.31
2018-09-29T13:33:05.895Z,94345.53
2018-09-29T13:35:33.494Z,94346.39
2018-09-29T13:38:01.079Z,94332.18
2018-09-29T13:40:28.698Z,94333.59
2018-09-29T13:42:56.295Z,94333.58
2018-09-29T13:45:23.853Z,94325.75
2018-09-29T13:47:51.418Z,94329.98
2018-09-29T13:50:19.223Z,94327.22
2018-09-29T13:52:46.791Z,94322.09
2018-09-29T13:55:14.310Z,94330.03
2018-09-29T13:57:42.006Z,94321.77
2018-09-29T14:00:09.578Z,94319.77
2018-09-29T14:02:37.199Z,94317.45
2018-09-29T14:05:04.808Z,94322.45
2018-09-29T14:07:32.645Z,94314.86
2018-09-29T14:10:00.173Z,94315.66
2018-09-29T14:12:27.738Z,94318.41
2018-09-29T14:14:55.364Z,94314.45
2018-09-29T14:17:22.929Z,94308.08
2018-09-29T14:19:50.553Z,94310.89
2018-09-29T14:22:18.088Z,94304.41
2018-09-29T14:24:45.669Z,94296.62
2018-09-29T14:27:13.214Z,94293.58
2018-09-29T14:29:40.748Z,94296.38
2018-09-29T14:32:08.368Z,94297.23
2018-09-29T14:34:36.802Z,94298.46
2018-09-29T14:37:04.413Z,94293.68
2018-09-29T14:39:32.252Z,94297.13
2018-09-29T14:41:59.990Z,94297.94
2018-09-29T14:44:27.412Z,94287.50
2018-09-29T14:46:54.983Z,94289.60
2018-09-29T14:49:22.555Z,94291.67
2018-09-29T14:51:50.124Z,94300.14
2018-09-29T14:54:17.678Z,94295.00
2018-09-29T14:56:45.275Z,94291.92
2018-09-29T14:59:12.784Z,94296.16
2018-09-29T15:01:40.314Z,94290.72
2018-09-29T15:04:08.238Z,94282.76
2018-09-29T15:06:35.799Z,94286.63
2018-09-29T15:09:05.278Z,94282.36
2018-09-29T15:11:32.890Z,94284.80
2018-09-29T15:14:00.562Z,94280.37
2018-09-29T15:16:28.105Z,94285.64
2018-09-29T15:18:55.670Z,94274.03
2018-09-29T15:21:23.208Z,94283.30
2018-09-29T15:23:50.831Z,94281.67
2018-09-29T15:26:18.379Z,94278.52
2018-09-29T15:28:45.918Z,94274.95
2018-09-29T15:31:13.519Z,94274.14
2018-09-29T15:33:41.070Z,94268.16
2018-09-29T15:36:08.652Z,94271.86
2018-09-29T15:38:36.270Z,94263.45
2018-09-29T15:41:03.867Z,94263.72
2018-09-29T15:43:31.412Z,94270.76
2018-09-29T15:45:59.022Z,94264.70
2018-09-29T15:48:26.698Z,94264.70
2018-09-29T15:50:54.258Z,94262.13
2018-09-29T15:53:21.835Z,94260.42
2018-09-29T15:55:49.440Z,94261.52
2018-09-29T15:58:16.994Z,94254.55
2018-09-29T16:00:44.606Z,94257.35
2018-09-29T16:03:12.331Z,94255.86
2018-09-29T16:05:39.913Z,94252.17
2018-09-29T16:08:07.742Z,94257.15
2018-09-29T16:10:35.300Z,94268.56
2018-09-29T16:13:02.906Z,94263.45
2018-09-29T16:15:30.477Z,94257.56
2018-09-29T16:17:58.064Z,94252.70
2018-09-29T16:20:25.618Z,94256.80
2018-09-29T16:22:53.375Z,94250.47
2018-09-29T16:25:20.956Z,94254.33
2018-09-29T16:27:48.531Z,94251.89
2018-09-29T16:30:16.399Z,94245.06
2018-09-29T16:32:43.969Z,94245.02
2018-09-29T16:35:11.522Z,94243.65
2018-09-29T16:37:39.383Z,94251.80
2018-09-29T16:40:06.959Z,94254.49
2018-09-29T16:42:34.525Z,94254.75
2018-09-29T16:45:02.151Z,94253.95
2018-09-29T16:47:29.718Z,94256.19
2018-09-29T16:49:57.343Z,94259.48
2018-09-29T16:52:24.943Z,94272.56
2018-09-29T16:54:52.493Z,94263.97
2018-09-29T16:57:20.103Z,94270.28
2018-09-29T16:59:48.027Z,94268.97
2018-09-29T17:02:15.637Z,94267.43
2018-09-29T17:04:43.360Z,94271.12
2018-09-29T17:07:10.813Z,94273.75
2018-09-29T17:09:38.363Z,94271.92
2018-09-29T17:12:05.974Z,94281.27
2018-09-29T17:14:33.552Z,94277.61
2018-09-29T17:17:01.112Z,94276.19
2018-09-29T17:19:28.678Z,94281.45
2018-09-29T17:21:56.308Z,94282.26
2018-09-29T17:24:24.092Z,94281.84
2018-09-29T17:26:51.736Z,94289.06
2018-09-29T17:29:19.296Z,94290.77
2018-09-29T17:31:46.942Z,94296.63
2018-09-29T17:34:14.534Z,94298.84
2018-09-29T17:36:42.175Z,94294.49
2018-09-29T17:39:10.896Z,94303.28
2018-09-29T17:41:38.680Z,94299.53
2018-09-29T17:44:06.443Z,94303.55
2018-09-29T17:46:34.166Z,94312.52
2018-09-29T17:49:02.254Z,94307.70
2018-09-29T17:51:29.964Z,94309.33
2018-09-29T17:53:57.516Z,94307.76
2018-09-29T17:56:25.144Z,94310.52
2018-09-29T17:58:52.735Z,94306.16
2018-09-29T18:01:20.257Z,94308.30
2018-09-29T18:03:47.845Z,94306.16
2018-09-29T18:06:15.536Z,94315.28
2018-09-29T18:08:43.132Z,94313.84
2018-09-29T18:11:10.756Z,94313.21
2018-09-29T18:13:38.328Z,94313.21
2018-09-29T18:16:06.039Z,94321.66
2018-09-29T18:18:33.588Z,94313.31
2018-09-29T18:21:01.139Z,94322.59
2018-09-29T18:23:28.723Z,94318.49
2018-09-29T18:25:56.302Z,94321.90
2018-09-29T18:28:23.872Z,94318.63
2018-09-29T18:30:51.454Z,94318.72
2018-09-29T18:33:19.049Z,94315.53
2018-09-29T18:35:46.711Z,94315.45
2018-09-29T18:38:14.267Z,94313.53
2018-09-29T18:40:41.862Z,94313.53
2018-09-29T18:43:09.473Z,94320.40
2018-09-29T18:45:37.026Z,94317.70
2018-09-29T18:48:04.599Z,94318.62
2018-09-29T18:50:32.223Z,94318.83
2018-09-29T18:52:59.789Z,94321.16
2018-09-29T18:55:27.325Z,94318.64
2018-09-29T18:57:54.923Z,94319.59
2018-09-29T19:00:22.491Z,94319.50
2018-09-29T19:02:50.105Z,94327.36
2018-09-29T19:05:17.684Z,94320.43
2018-09-29T19:07:45.267Z,94326.37
2018-09-29T19:10:12.884Z,94319.73
2018-09-29T19:12:40.529Z,94329.38
2018-09-29T19:15:08.080Z,94329.74
2018-09-29T19:17:35.667Z,94327.30
2018-09-29T19:20:03.247Z,94324.91
2018-09-29T19:22:30.783Z,94329.35
2018-09-29T19:24:58.365Z,94324.91
2018-09-29T19:27:25.906Z,94326.62
2018-09-29T19:29:53.777Z,94314.39
2018-09-29T19:32:21.358Z,94320.70
2018-09-29T19:34:48.891Z,94321.84
2018-09-29T19:37:16.447Z,94321.67
2018-09-29T19:39:44.063Z,94323.28
2018-09-29T19:42:11.628Z,94325.41
2018-09-29T19:44:39.195Z,94321.75
2018-09-29T19:47:06.743Z,94323.02
2018-09-29T19:49:34.334Z,94321.41
2018-09-29T19:52:01.892Z,94323.02
2018-09-29T19:54:29.452Z,94318.31
2018-09-29T19:56:57.110Z,94322.42
2018-09-29T19:59:24.651Z,94323.28
2018-09-29T20:01:52.195Z,94323.13
2018-09-29T20:04:19.802Z,94317.88
2018-09-29T20:06:47.343Z,94316.92
2018-09-29T20:09:14.902Z,94318.22
2018-09-29T20:11:42.452Z,94317.23
2018-09-29T20:14:10.051Z,94315.27
2018-09-29T20:16:37.625Z,94314.41
2018-09-29T20:19:05.203Z,94305.55
2018-09-29T20:21:32.780Z,94307.00
2018-09-29T20:24:00.342Z,94301.28
2018-09-29T20:26:27.932Z,94297.95
2018-09-29T20:28:55.480Z,94298.61
2018-09-29T20:31:23.357Z,94299.05
2018-09-29T20:33:50.918Z,94294.59
2018-09-29T20:36:18.477Z,94290.05
2018-09-29T20:38:46.100Z,94295.25
2018-09-29T20:41:13.637Z,94295.47
2018-09-29T20:43:41.210Z,94296.77
2018-09-29T20:46:08.743Z,94302.17
2018-09-29T20:48:36.344Z,94304.56
2018-09-29T20:51:04.498Z,94299.84
2018-09-29T20:53:32.102Z,94292.28
2018-09-29T20:55:59.719Z,94294.66
2018-09-29T20:58:27.311Z,94301.94
2018-09-29T21:00:54.879Z,94292.35
2018-09-29T21:03:22.401Z,94297.73
2018-09-29T21:05:49.924Z,94295.43
2018-09-29T21:08:17.494Z,94296.74
2018-09-29T21:10:45.057Z,94290.09
2018-09-29T21:13:12.695Z,94284.95
2018-09-29T21:15:40.227Z,94287.13
2018-09-29T21:18:07.791Z,94289.69
2018-09-29T21:20:35.370Z,94287.23
2018-09-29T21:23:02.971Z,94284.28
2018-09-29T21:25:30.522Z,94278.89
2018-09-29T21:27:58.344Z,94279.04
2018-09-29T21:30:25.879Z,94276.85
2018-09-29T21:32:53.419Z,94275.25
2018-09-29T21:35:20.999Z,94280.30
2018-09-29T21:37:48.586Z,94277.06
2018-09-29T21:40:16.161Z,94279.06
2018-09-29T21:42:43.687Z,94281.07
2018-09-29T21:45:11.398Z,94279.47
2018-09-29T21:47:39.003Z,94274.59
2018-09-29T21:50:06.588Z,94273.69
2018-09-29T21:52:34.162Z,94272.06
2018-09-29T21:55:01.761Z,94278.69
2018-09-29T21:57:29.302Z,94272.31
2018-09-29T21:59:56.882Z,94271.36
2018-09-29T22:02:24.469Z,94270.45
2018-09-29T22:04:52.021Z,94266.25
2018-09-29T22:07:19.849Z,94262.73
2018-09-29T22:09:47.434Z,94264.72
2018-09-29T22:12:14.978Z,94260.70
2018-09-29T22:14:42.573Z,94256.20
2018-09-29T22:17:10.148Z,94252.97
2018-09-29T22:19:37.765Z,94248.41
2018-09-29T22:22:05.400Z,94243.81
2018-09-29T22:24:32.925Z,94250.38
2018-09-29T22:27:00.489Z,94245.67
2018-09-29T22:29:28.050Z,94243.22
2018-09-29T22:31:55.628Z,94246.16
2018-09-29T22:34:23.178Z,94243.27
2018-09-29T22:36:50.814Z,94239.41
2018-09-29T22:39:18.397Z,94235.26
2018-09-29T22:41:45.926Z,94226.91
2018-09-29T22:44:13.505Z,94228.55
2018-09-29T22:46:41.064Z,94222.02
2018-09-29T22:49:08.605Z,94234.13
2018-09-29T22:51:36.187Z,94224.81
2018-09-29T22:54:03.943Z,94219.39
2018-09-29T22:56:31.510Z,94218.84
2018-09-29T22:58:59.036Z,94226.13
2018-09-29T23:01:26.595Z,94228.45
2018-09-29T23:03:54.146Z,94224.88
2018-09-29T23:06:22.069Z,94223.13
2018-09-29T23:08:49.596Z,94223.14
2018-09-29T23:11:17.167Z,94223.50
2018-09-29T23:13:45.063Z,94223.69
2018-09-29T23:16:12.613Z,94224.66
2018-09-29T23:18:40.173Z,94221.42
2018-09-29T23:21:07.752Z,94229.27
2018-09-29T23:23:35.342Z,94222.02
2018-09-29T23:26:02.983Z,94225.98
2018-09-29T23:28:30.534Z,94225.03
2018-09-29T23:30:58.082Z,94227.37
2018-09-29T23:33:25.630Z,94231.94
2018-09-29T23:35:53.190Z,94231.00
2018-09-29T23:38:20.756Z,94228.72
2018-09-29T23:40:48.346Z,94221.53
2018-09-29T23:43:16.175Z,94220.20
2018-09-29T23:45:43.724Z,94214.13
2018-09-29T23:48:11.249Z,94215.95
2018-09-29T23:50:38.816Z,94211.73
2018-09-29T23:53:06.405Z,94216.93
2018-09-29T23:55:33.987Z,94210.73
2018-09-29T23:58:01.533Z,94208.78
